sensor_id;sensor_type;location;lat;lon;timestamp;P1;durP1;ratioP1;P2;durP2;ratioP2
17494;SDS011;8864;51.970;4.614;2023-05-20T00:01:22;2.55;;;0.70;;
17494;SDS011;8864;51.970;4.614;2023-05-20T00:03:49;1.90;;;0.95;;
17494;SDS011;8864;51.970;4.614;2023-05-20T00:06:16;2.15;;;0.85;;
17494;SDS011;8864;51.970;4.614;2023-05-20T00:08:44;1.42;;;0.73;;
17494;SDS011;8864;51.970;4.614;2023-05-20T00:11:11;1.38;;;0.90;;
17494;SDS011;8864;51.970;4.614;2023-05-20T00:13:38;2.15;;;0.75;;
17494;SDS011;8864;51.970;4.614;2023-05-20T00:16:05;1.70;;;0.88;;
17494;SDS011;8864;51.970;4.614;2023-05-20T00:18:32;2.60;;;0.73;;
17494;SDS011;8864;51.970;4.614;2023-05-20T00:20:59;1.55;;;0.80;;
17494;SDS011;8864;51.970;4.614;2023-05-20T00:23:26;1.52;;;0.68;;
17494;SDS011;8864;51.970;4.614;2023-05-20T00:25:54;3.00;;;0.70;;
17494;SDS011;8864;51.970;4.614;2023-05-20T00:28:21;2.28;;;0.88;;
17494;SDS011;8864;51.970;4.614;2023-05-20T00:30:48;1.52;;;0.80;;
17494;SDS011;8864;51.970;4.614;2023-05-20T00:33:15;1.55;;;0.80;;
17494;SDS011;8864;51.970;4.614;2023-05-20T00:35:42;1.42;;;0.60;;
17494;SDS011;8864;51.970;4.614;2023-05-20T00:38:09;0.90;;;0.70;;
17494;SDS011;8864;51.970;4.614;2023-05-20T00:40:36;0.88;;;0.73;;
17494;SDS011;8864;51.970;4.614;2023-05-20T00:43:05;1.23;;;0.75;;
17494;SDS011;8864;51.970;4.614;2023-05-20T00:45:31;1.50;;;0.70;;
17494;SDS011;8864;51.970;4.614;2023-05-20T00:47:58;1.27;;;0.68;;
17494;SDS011;8864;51.970;4.614;2023-05-20T00:50:28;1.67;;;0.75;;
17494;SDS011;8864;51.970;4.614;2023-05-20T00:52:55;1.45;;;0.70;;
17494;SDS011;8864;51.970;4.614;2023-05-20T00:55:22;1.17;;;0.75;;
17494;SDS011;8864;51.970;4.614;2023-05-20T00:57:50;1.55;;;0.73;;
17494;SDS011;8864;51.970;4.614;2023-05-20T01:00:22;2.17;;;0.80;;
17494;SDS011;8864;51.970;4.614;2023-05-20T01:02:49;1.13;;;0.60;;
17494;SDS011;8864;51.970;4.614;2023-05-20T01:05:15;2.33;;;0.90;;
17494;SDS011;8864;51.970;4.614;2023-05-20T01:07:43;0.98;;;0.50;;
17494;SDS011;8864;51.970;4.614;2023-05-20T01:10:10;1.20;;;0.70;;
17494;SDS011;8864;51.970;4.614;2023-05-20T01:12:38;2.75;;;0.90;;
17494;SDS011;8864;51.970;4.614;2023-05-20T01:15:09;2.00;;;0.60;;
17494;SDS011;8864;51.970;4.614;2023-05-20T01:17:39;0.95;;;0.65;;
17494;SDS011;8864;51.970;4.614;2023-05-20T01:20:09;3.00;;;1.00;;
17494;SDS011;8864;51.970;4.614;2023-05-20T01:22:39;1.60;;;0.80;;
17494;SDS011;8864;51.970;4.614;2023-05-20T01:25:13;2.17;;;0.80;;
17494;SDS011;8864;51.970;4.614;2023-05-20T01:27:40;2.80;;;0.77;;
17494;SDS011;8864;51.970;4.614;2023-05-20T01:30:07;1.23;;;0.70;;
17494;SDS011;8864;51.970;4.614;2023-05-20T01:32:35;1.63;;;0.65;;
17494;SDS011;8864;51.970;4.614;2023-05-20T01:35:05;1.98;;;0.90;;
17494;SDS011;8864;51.970;4.614;2023-05-20T01:37:33;0.88;;;0.70;;
17494;SDS011;8864;51.970;4.614;2023-05-20T01:40:05;1.00;;;0.70;;
17494;SDS011;8864;51.970;4.614;2023-05-20T01:42:34;1.67;;;0.70;;
17494;SDS011;8864;51.970;4.614;2023-05-20T01:45:02;1.40;;;0.70;;
17494;SDS011;8864;51.970;4.614;2023-05-20T01:47:30;1.17;;;0.68;;
17494;SDS011;8864;51.970;4.614;2023-05-20T01:49:57;0.95;;;0.70;;
17494;SDS011;8864;51.970;4.614;2023-05-20T01:52:23;3.15;;;0.70;;
17494;SDS011;8864;51.970;4.614;2023-05-20T01:54:50;1.65;;;0.75;;
17494;SDS011;8864;51.970;4.614;2023-05-20T01:57:19;0.93;;;0.70;;
17494;SDS011;8864;51.970;4.614;2023-05-20T01:59:46;0.65;;;0.60;;
17494;SDS011;8864;51.970;4.614;2023-05-20T02:02:13;1.45;;;0.63;;
17494;SDS011;8864;51.970;4.614;2023-05-20T02:04:41;0.60;;;0.52;;
17494;SDS011;8864;51.970;4.614;2023-05-20T02:07:11;0.88;;;0.70;;
17494;SDS011;8864;51.970;4.614;2023-05-20T02:09:39;1.70;;;0.70;;
17494;SDS011;8864;51.970;4.614;2023-05-20T02:12:06;0.75;;;0.60;;
17494;SDS011;8864;51.970;4.614;2023-05-20T02:14:35;0.63;;;0.60;;
17494;SDS011;8864;51.970;4.614;2023-05-20T02:17:02;1.27;;;0.63;;
17494;SDS011;8864;51.970;4.614;2023-05-20T02:19:30;1.25;;;0.80;;
17494;SDS011;8864;51.970;4.614;2023-05-20T02:21:57;0.82;;;0.60;;
17494;SDS011;8864;51.970;4.614;2023-05-20T02:24:24;0.85;;;0.60;;
17494;SDS011;8864;51.970;4.614;2023-05-20T02:26:51;0.40;;;0.40;;
17494;SDS011;8864;51.970;4.614;2023-05-20T02:29:19;0.90;;;0.70;;
17494;SDS011;8864;51.970;4.614;2023-05-20T02:31:48;0.73;;;0.52;;
17494;SDS011;8864;51.970;4.614;2023-05-20T02:34:16;1.08;;;0.50;;
17494;SDS011;8864;51.970;4.614;2023-05-20T02:36:43;1.20;;;0.60;;
17494;SDS011;8864;51.970;4.614;2023-05-20T02:39:10;1.05;;;0.60;;
17494;SDS011;8864;51.970;4.614;2023-05-20T02:41:37;1.00;;;0.70;;
17494;SDS011;8864;51.970;4.614;2023-05-20T02:44:04;1.33;;;0.70;;
17494;SDS011;8864;51.970;4.614;2023-05-20T02:46:31;1.10;;;0.90;;
17494;SDS011;8864;51.970;4.614;2023-05-20T02:49:00;1.27;;;0.80;;
17494;SDS011;8864;51.970;4.614;2023-05-20T02:51:27;1.38;;;0.85;;
17494;SDS011;8864;51.970;4.614;2023-05-20T02:53:55;1.92;;;0.73;;
17494;SDS011;8864;51.970;4.614;2023-05-20T02:56:22;1.52;;;0.90;;
17494;SDS011;8864;51.970;4.614;2023-05-20T02:58:51;1.65;;;0.90;;
17494;SDS011;8864;51.970;4.614;2023-05-20T03:01:17;1.80;;;0.77;;
17494;SDS011;8864;51.970;4.614;2023-05-20T03:03:44;1.90;;;0.90;;
17494;SDS011;8864;51.970;4.614;2023-05-20T03:06:13;1.65;;;0.90;;
17494;SDS011;8864;51.970;4.614;2023-05-20T03:08:40;2.10;;;1.00;;
17494;SDS011;8864;51.970;4.614;2023-05-20T03:11:13;1.38;;;0.90;;
17494;SDS011;8864;51.970;4.614;2023-05-20T03:13:40;1.98;;;0.90;;
17494;SDS011;8864;51.970;4.614;2023-05-20T03:16:09;1.67;;;0.90;;
17494;SDS011;8864;51.970;4.614;2023-05-20T03:18:37;2.03;;;0.90;;
17494;SDS011;8864;51.970;4.614;2023-05-20T03:21:05;2.33;;;0.90;;
17494;SDS011;8864;51.970;4.614;2023-05-20T03:23:33;2.00;;;1.20;;
17494;SDS011;8864;51.970;4.614;2023-05-20T03:26:00;3.50;;;1.00;;
17494;SDS011;8864;51.970;4.614;2023-05-20T03:28:28;3.00;;;0.90;;
17494;SDS011;8864;51.970;4.614;2023-05-20T03:30:55;2.50;;;0.90;;
17494;SDS011;8864;51.970;4.614;2023-05-20T03:33:21;1.85;;;0.88;;
17494;SDS011;8864;51.970;4.614;2023-05-20T03:35:50;3.05;;;1.00;;
17494;SDS011;8864;51.970;4.614;2023-05-20T03:38:17;1.60;;;1.05;;
17494;SDS011;8864;51.970;4.614;2023-05-20T03:40:45;2.83;;;0.90;;
17494;SDS011;8864;51.970;4.614;2023-05-20T03:43:12;2.20;;;0.80;;
17494;SDS011;8864;51.970;4.614;2023-05-20T03:45:39;3.70;;;1.10;;
17494;SDS011;8864;51.970;4.614;2023-05-20T03:48:06;1.88;;;1.00;;
17494;SDS011;8864;51.970;4.614;2023-05-20T03:50:33;2.85;;;1.00;;
17494;SDS011;8864;51.970;4.614;2023-05-20T03:53:01;2.70;;;1.00;;
17494;SDS011;8864;51.970;4.614;2023-05-20T03:55:28;2.67;;;1.13;;
17494;SDS011;8864;51.970;4.614;2023-05-20T03:57:57;2.42;;;1.10;;
17494;SDS011;8864;51.970;4.614;2023-05-20T04:00:25;1.85;;;1.00;;
17494;SDS011;8864;51.970;4.614;2023-05-20T04:02:54;3.83;;;1.30;;
17494;SDS011;8864;51.970;4.614;2023-05-20T04:05:22;1.48;;;0.80;;
17494;SDS011;8864;51.970;4.614;2023-05-20T04:07:49;2.20;;;1.00;;
17494;SDS011;8864;51.970;4.614;2023-05-20T04:10:17;2.45;;;1.00;;
17494;SDS011;8864;51.970;4.614;2023-05-20T04:12:44;1.17;;;0.90;;
17494;SDS011;8864;51.970;4.614;2023-05-20T04:15:12;2.65;;;1.00;;
17494;SDS011;8864;51.970;4.614;2023-05-20T04:17:40;2.05;;;0.93;;
17494;SDS011;8864;51.970;4.614;2023-05-20T04:20:07;3.88;;;1.30;;
17494;SDS011;8864;51.970;4.614;2023-05-20T04:22:35;3.97;;;1.40;;
17494;SDS011;8864;51.970;4.614;2023-05-20T04:25:03;1.67;;;1.00;;
17494;SDS011;8864;51.970;4.614;2023-05-20T04:27:31;1.98;;;1.00;;
17494;SDS011;8864;51.970;4.614;2023-05-20T04:33:08;2.05;;;1.05;;
17494;SDS011;8864;51.970;4.614;2023-05-20T04:35:35;2.42;;;1.23;;
17494;SDS011;8864;51.970;4.614;2023-05-20T04:38:05;1.23;;;1.00;;
17494;SDS011;8864;51.970;4.614;2023-05-20T04:40:33;2.90;;;1.20;;
17494;SDS011;8864;51.970;4.614;2023-05-20T04:43:00;2.75;;;1.10;;
17494;SDS011;8864;51.970;4.614;2023-05-20T04:45:28;2.13;;;0.82;;
17494;SDS011;8864;51.970;4.614;2023-05-20T04:47:54;2.92;;;1.20;;
17494;SDS011;8864;51.970;4.614;2023-05-20T04:50:23;1.52;;;0.93;;
17494;SDS011;8864;51.970;4.614;2023-05-20T04:52:50;1.88;;;1.00;;
17494;SDS011;8864;51.970;4.614;2023-05-20T04:55:17;1.25;;;0.90;;
17494;SDS011;8864;51.970;4.614;2023-05-20T04:57:45;2.00;;;0.95;;
17494;SDS011;8864;51.970;4.614;2023-05-20T05:00:13;4.47;;;1.17;;
17494;SDS011;8864;51.970;4.614;2023-05-20T05:02:40;4.07;;;1.08;;
17494;SDS011;8864;51.970;4.614;2023-05-20T05:05:08;1.73;;;1.05;;
17494;SDS011;8864;51.970;4.614;2023-05-20T05:07:37;1.35;;;1.00;;
17494;SDS011;8864;51.970;4.614;2023-05-20T05:10:04;2.25;;;0.90;;
17494;SDS011;8864;51.970;4.614;2023-05-20T05:12:31;3.20;;;1.15;;
17494;SDS011;8864;51.970;4.614;2023-05-20T05:14:58;3.22;;;1.20;;
17494;SDS011;8864;51.970;4.614;2023-05-20T05:17:25;1.42;;;0.85;;
17494;SDS011;8864;51.970;4.614;2023-05-20T05:19:53;2.15;;;1.05;;
17494;SDS011;8864;51.970;4.614;2023-05-20T05:22:20;2.25;;;1.13;;
17494;SDS011;8864;51.970;4.614;2023-05-20T05:24:51;3.30;;;1.27;;
17494;SDS011;8864;51.970;4.614;2023-05-20T05:27:19;1.67;;;0.90;;
17494;SDS011;8864;51.970;4.614;2023-05-20T05:29:46;2.00;;;1.23;;
17494;SDS011;8864;51.970;4.614;2023-05-20T05:32:14;0.85;;;0.75;;
17494;SDS011;8864;51.970;4.614;2023-05-20T05:34:40;3.25;;;0.98;;
17494;SDS011;8864;51.970;4.614;2023-05-20T05:37:07;1.70;;;0.90;;
17494;SDS011;8864;51.970;4.614;2023-05-20T05:39:34;2.60;;;1.10;;
17494;SDS011;8864;51.970;4.614;2023-05-20T05:42:03;4.15;;;1.00;;
17494;SDS011;8864;51.970;4.614;2023-05-20T05:44:30;1.75;;;0.90;;
17494;SDS011;8864;51.970;4.614;2023-05-20T05:46:57;2.13;;;1.10;;
17494;SDS011;8864;51.970;4.614;2023-05-20T05:49:24;2.60;;;1.10;;
17494;SDS011;8864;51.970;4.614;2023-05-20T05:51:51;3.75;;;1.00;;
17494;SDS011;8864;51.970;4.614;2023-05-20T05:54:18;3.92;;;1.00;;
17494;SDS011;8864;51.970;4.614;2023-05-20T05:56:45;0.95;;;0.80;;
17494;SDS011;8864;51.970;4.614;2023-05-20T05:59:14;3.15;;;0.90;;
17494;SDS011;8864;51.970;4.614;2023-05-20T06:01:41;2.65;;;1.15;;
17494;SDS011;8864;51.970;4.614;2023-05-20T06:04:08;3.55;;;1.10;;
17494;SDS011;8864;51.970;4.614;2023-05-20T06:06:35;1.50;;;1.00;;
17494;SDS011;8864;51.970;4.614;2023-05-20T06:09:02;2.67;;;1.13;;
17494;SDS011;8864;51.970;4.614;2023-05-20T06:11:30;1.70;;;0.88;;
17494;SDS011;8864;51.970;4.614;2023-05-20T06:13:57;2.40;;;1.05;;
17494;SDS011;8864;51.970;4.614;2023-05-20T06:16:25;1.98;;;0.93;;
17494;SDS011;8864;51.970;4.614;2023-05-20T06:18:52;3.28;;;1.27;;
17494;SDS011;8864;51.970;4.614;2023-05-20T06:21:21;6.07;;;1.15;;
17494;SDS011;8864;51.970;4.614;2023-05-20T06:23:49;2.55;;;1.05;;
17494;SDS011;8864;51.970;4.614;2023-05-20T06:26:16;1.90;;;1.00;;
17494;SDS011;8864;51.970;4.614;2023-05-20T06:28:43;1.92;;;1.00;;
17494;SDS011;8864;51.970;4.614;2023-05-20T06:31:10;1.33;;;0.98;;
17494;SDS011;8864;51.970;4.614;2023-05-20T06:33:38;1.88;;;1.00;;
17494;SDS011;8864;51.970;4.614;2023-05-20T06:36:05;5.93;;;1.13;;
17494;SDS011;8864;51.970;4.614;2023-05-20T06:38:33;2.10;;;0.90;;
17494;SDS011;8864;51.970;4.614;2023-05-20T06:40:59;3.30;;;1.00;;
17494;SDS011;8864;51.970;4.614;2023-05-20T06:43:26;1.67;;;0.90;;
17494;SDS011;8864;51.970;4.614;2023-05-20T06:45:53;1.95;;;0.90;;
17494;SDS011;8864;51.970;4.614;2023-05-20T06:48:20;2.30;;;0.80;;
17494;SDS011;8864;51.970;4.614;2023-05-20T06:50:49;4.00;;;1.02;;
17494;SDS011;8864;51.970;4.614;2023-05-20T06:53:15;1.90;;;0.95;;
17494;SDS011;8864;51.970;4.614;2023-05-20T06:55:43;2.45;;;0.93;;
17494;SDS011;8864;51.970;4.614;2023-05-20T06:58:09;1.58;;;0.95;;
17494;SDS011;8864;51.970;4.614;2023-05-20T07:00:36;2.53;;;1.48;;
17494;SDS011;8864;51.970;4.614;2023-05-20T07:03:04;2.22;;;0.93;;
17494;SDS011;8864;51.970;4.614;2023-05-20T07:05:30;0.98;;;0.70;;
17494;SDS011;8864;51.970;4.614;2023-05-20T07:07:59;3.55;;;1.10;;
17494;SDS011;8864;51.970;4.614;2023-05-20T07:10:26;1.20;;;0.82;;
17494;SDS011;8864;51.970;4.614;2023-05-20T07:12:53;2.97;;;1.05;;
17494;SDS011;8864;51.970;4.614;2023-05-20T07:15:20;1.65;;;0.90;;
17494;SDS011;8864;51.970;4.614;2023-05-20T07:17:47;3.28;;;0.57;;
17494;SDS011;8864;51.970;4.614;2023-05-20T07:20:14;5.30;;;1.20;;
17494;SDS011;8864;51.970;4.614;2023-05-20T07:22:41;6.65;;;1.17;;
17494;SDS011;8864;51.970;4.614;2023-05-20T07:25:10;3.10;;;1.13;;
17494;SDS011;8864;51.970;4.614;2023-05-20T07:27:37;7.75;;;1.20;;
17494;SDS011;8864;51.970;4.614;2023-05-20T07:30:05;5.53;;;1.30;;
17494;SDS011;8864;51.970;4.614;2023-05-20T07:32:33;8.18;;;1.30;;
17494;SDS011;8864;51.970;4.614;2023-05-20T07:35:00;3.92;;;1.05;;
17494;SDS011;8864;51.970;4.614;2023-05-20T07:37:27;5.22;;;1.55;;
17494;SDS011;8864;51.970;4.614;2023-05-20T07:39:53;2.97;;;1.08;;
17494;SDS011;8864;51.970;4.614;2023-05-20T07:42:23;6.03;;;1.30;;
17494;SDS011;8864;51.970;4.614;2023-05-20T07:44:50;9.55;;;1.63;;
17494;SDS011;8864;51.970;4.614;2023-05-20T07:47:19;8.32;;;1.35;;
17494;SDS011;8864;51.970;4.614;2023-05-20T07:49:46;9.70;;;1.25;;
17494;SDS011;8864;51.970;4.614;2023-05-20T07:52:14;7.18;;;1.73;;
17494;SDS011;8864;51.970;4.614;2023-05-20T07:54:41;4.50;;;1.60;;
17494;SDS011;8864;51.970;4.614;2023-05-20T07:57:08;12.75;;;2.00;;
17494;SDS011;8864;51.970;4.614;2023-05-20T07:59:36;10.65;;;1.90;;
17494;SDS011;8864;51.970;4.614;2023-05-20T08:02:03;11.38;;;1.65;;
17494;SDS011;8864;51.970;4.614;2023-05-20T08:04:30;10.18;;;1.98;;
17494;SDS011;8864;51.970;4.614;2023-05-20T08:06:58;6.95;;;1.70;;
17494;SDS011;8864;51.970;4.614;2023-05-20T08:09:25;10.40;;;1.77;;
17494;SDS011;8864;51.970;4.614;2023-05-20T08:11:52;14.60;;;1.92;;
17494;SDS011;8864;51.970;4.614;2023-05-20T08:14:19;10.40;;;1.80;;
17494;SDS011;8864;51.970;4.614;2023-05-20T08:16:48;16.70;;;1.92;;
17494;SDS011;8864;51.970;4.614;2023-05-20T08:19:15;14.30;;;2.13;;
17494;SDS011;8864;51.970;4.614;2023-05-20T08:21:42;20.33;;;2.95;;
17494;SDS011;8864;51.970;4.614;2023-05-20T08:24:09;9.38;;;2.17;;
17494;SDS011;8864;51.970;4.614;2023-05-20T08:26:36;13.15;;;2.30;;
17494;SDS011;8864;51.970;4.614;2023-05-20T08:29:03;18.38;;;2.38;;
17494;SDS011;8864;51.970;4.614;2023-05-20T08:31:30;14.85;;;1.98;;
17494;SDS011;8864;51.970;4.614;2023-05-20T08:33:59;12.88;;;2.38;;
17494;SDS011;8864;51.970;4.614;2023-05-20T08:36:26;13.27;;;2.38;;
17494;SDS011;8864;51.970;4.614;2023-05-20T08:38:53;14.55;;;2.55;;
17494;SDS011;8864;51.970;4.614;2023-05-20T08:41:20;14.98;;;2.25;;
17494;SDS011;8864;51.970;4.614;2023-05-20T08:43:48;12.70;;;2.30;;
17494;SDS011;8864;51.970;4.614;2023-05-20T08:46:17;17.35;;;2.45;;
17494;SDS011;8864;51.970;4.614;2023-05-20T08:48:45;15.15;;;2.28;;
17494;SDS011;8864;51.970;4.614;2023-05-20T08:51:14;10.77;;;2.05;;
17494;SDS011;8864;51.970;4.614;2023-05-20T08:53:43;21.00;;;2.63;;
17494;SDS011;8864;51.970;4.614;2023-05-20T08:56:09;16.00;;;2.53;;
17494;SDS011;8864;51.970;4.614;2023-05-20T08:58:38;13.07;;;2.13;;
17494;SDS011;8864;51.970;4.614;2023-05-20T09:01:07;16.17;;;2.28;;
17494;SDS011;8864;51.970;4.614;2023-05-20T09:03:34;22.80;;;2.80;;
17494;SDS011;8864;51.970;4.614;2023-05-20T09:06:04;11.35;;;2.08;;
17494;SDS011;8864;51.970;4.614;2023-05-20T09:08:33;18.85;;;2.45;;
17494;SDS011;8864;51.970;4.614;2023-05-20T09:11:01;11.35;;;2.38;;
17494;SDS011;8864;51.970;4.614;2023-05-20T09:13:29;16.15;;;2.42;;
17494;SDS011;8864;51.970;4.614;2023-05-20T09:15:58;9.25;;;2.10;;
17494;SDS011;8864;51.970;4.614;2023-05-20T09:18:26;14.32;;;2.25;;
17494;SDS011;8864;51.970;4.614;2023-05-20T09:20:53;13.13;;;2.13;;
17494;SDS011;8864;51.970;4.614;2023-05-20T09:23:20;17.73;;;2.30;;
17494;SDS011;8864;51.970;4.614;2023-05-20T09:25:49;11.40;;;2.40;;
17494;SDS011;8864;51.970;4.614;2023-05-20T09:28:18;16.65;;;2.22;;
17494;SDS011;8864;51.970;4.614;2023-05-20T09:30:48;15.30;;;2.33;;
17494;SDS011;8864;51.970;4.614;2023-05-20T09:33:15;18.92;;;2.63;;
17494;SDS011;8864;51.970;4.614;2023-05-20T09:35:42;13.98;;;2.42;;
17494;SDS011;8864;51.970;4.614;2023-05-20T09:38:10;17.23;;;2.58;;
17494;SDS011;8864;51.970;4.614;2023-05-20T09:40:37;21.08;;;2.45;;
17494;SDS011;8864;51.970;4.614;2023-05-20T09:43:07;18.40;;;2.80;;
17494;SDS011;8864;51.970;4.614;2023-05-20T09:45:35;24.23;;;3.30;;
17494;SDS011;8864;51.970;4.614;2023-05-20T09:48:03;20.90;;;2.75;;
17494;SDS011;8864;51.970;4.614;2023-05-20T09:50:31;17.88;;;2.75;;
17494;SDS011;8864;51.970;4.614;2023-05-20T09:53:02;18.35;;;3.10;;
17494;SDS011;8864;51.970;4.614;2023-05-20T09:55:30;11.75;;;2.35;;
17494;SDS011;8864;51.970;4.614;2023-05-20T09:57:59;13.90;;;2.85;;
17494;SDS011;8864;51.970;4.614;2023-05-20T10:00:29;10.52;;;2.47;;
17494;SDS011;8864;51.970;4.614;2023-05-20T10:02:57;20.75;;;3.13;;
17494;SDS011;8864;51.970;4.614;2023-05-20T10:05:26;18.67;;;2.90;;
17494;SDS011;8864;51.970;4.614;2023-05-20T10:08:02;20.95;;;3.25;;
17494;SDS011;8864;51.970;4.614;2023-05-20T10:10:53;17.60;;;3.03;;
17494;SDS011;8864;51.970;4.614;2023-05-20T10:13:34;15.20;;;2.88;;
17494;SDS011;8864;51.970;4.614;2023-05-20T10:16:15;22.33;;;2.90;;
17494;SDS011;8864;51.970;4.614;2023-05-20T10:18:55;23.02;;;3.97;;
17494;SDS011;8864;51.970;4.614;2023-05-20T10:21:31;21.52;;;3.05;;
17494;SDS011;8864;51.970;4.614;2023-05-20T10:24:04;19.70;;;2.97;;
17494;SDS011;8864;51.970;4.614;2023-05-20T10:26:35;14.02;;;2.38;;
17494;SDS011;8864;51.970;4.614;2023-05-20T10:29:13;11.60;;;2.70;;
17494;SDS011;8864;51.970;4.614;2023-05-20T10:31:44;8.95;;;2.47;;
17494;SDS011;8864;51.970;4.614;2023-05-20T10:34:14;11.63;;;2.40;;
17494;SDS011;8864;51.970;4.614;2023-05-20T10:36:44;21.10;;;2.60;;
17494;SDS011;8864;51.970;4.614;2023-05-20T10:39:15;11.23;;;1.70;;
17494;SDS011;8864;51.970;4.614;2023-05-20T10:42:06;8.80;;;1.92;;
17494;SDS011;8864;51.970;4.614;2023-05-20T10:44:40;10.98;;;2.05;;
17494;SDS011;8864;51.970;4.614;2023-05-20T10:47:10;10.40;;;2.08;;
17494;SDS011;8864;51.970;4.614;2023-05-20T10:49:39;9.35;;;2.10;;
17494;SDS011;8864;51.970;4.614;2023-05-20T10:52:09;8.50;;;1.70;;
17494;SDS011;8864;51.970;4.614;2023-05-20T10:54:41;12.90;;;1.92;;
17494;SDS011;8864;51.970;4.614;2023-05-20T10:57:09;11.32;;;1.60;;
17494;SDS011;8864;51.970;4.614;2023-05-20T10:59:37;7.22;;;1.55;;
17494;SDS011;8864;51.970;4.614;2023-05-20T11:02:04;11.25;;;1.73;;
17494;SDS011;8864;51.970;4.614;2023-05-20T11:04:32;8.90;;;1.83;;
17494;SDS011;8864;51.970;4.614;2023-05-20T11:07:00;6.68;;;1.50;;
17494;SDS011;8864;51.970;4.614;2023-05-20T11:09:27;5.05;;;1.60;;
17494;SDS011;8864;51.970;4.614;2023-05-20T11:11:55;9.73;;;1.63;;
17494;SDS011;8864;51.970;4.614;2023-05-20T11:14:22;8.98;;;1.52;;
17494;SDS011;8864;51.970;4.614;2023-05-20T11:16:52;14.75;;;2.05;;
17494;SDS011;8864;51.970;4.614;2023-05-20T11:19:22;11.98;;;1.80;;
17494;SDS011;8864;51.970;4.614;2023-05-20T11:21:50;13.05;;;1.63;;
17494;SDS011;8864;51.970;4.614;2023-05-20T11:24:22;10.48;;;1.98;;
17494;SDS011;8864;51.970;4.614;2023-05-20T11:26:50;7.32;;;1.52;;
17494;SDS011;8864;51.970;4.614;2023-05-20T11:29:18;9.45;;;1.75;;
17494;SDS011;8864;51.970;4.614;2023-05-20T11:31:46;7.22;;;1.50;;
17494;SDS011;8864;51.970;4.614;2023-05-20T11:34:14;3.08;;;1.30;;
17494;SDS011;8864;51.970;4.614;2023-05-20T11:36:41;13.63;;;2.15;;
17494;SDS011;8864;51.970;4.614;2023-05-20T11:39:10;11.88;;;2.13;;
17494;SDS011;8864;51.970;4.614;2023-05-20T11:41:37;23.85;;;1.98;;
17494;SDS011;8864;51.970;4.614;2023-05-20T11:44:06;13.45;;;1.73;;
17494;SDS011;8864;51.970;4.614;2023-05-20T11:46:39;16.65;;;2.35;;
17494;SDS011;8864;51.970;4.614;2023-05-20T11:49:07;31.23;;;3.15;;
17494;SDS011;8864;51.970;4.614;2023-05-20T11:51:34;22.20;;;2.83;;
17494;SDS011;8864;51.970;4.614;2023-05-20T11:54:03;27.00;;;2.40;;
17494;SDS011;8864;51.970;4.614;2023-05-20T11:56:33;22.35;;;3.05;;
17494;SDS011;8864;51.970;4.614;2023-05-20T11:59:01;13.45;;;1.90;;
17494;SDS011;8864;51.970;4.614;2023-05-20T12:01:30;29.83;;;3.15;;
17494;SDS011;8864;51.970;4.614;2023-05-20T12:04:01;17.40;;;2.40;;
17494;SDS011;8864;51.970;4.614;2023-05-20T12:06:29;21.48;;;3.17;;
17494;SDS011;8864;51.970;4.614;2023-05-20T12:08:57;22.90;;;3.28;;
17494;SDS011;8864;51.970;4.614;2023-05-20T12:11:30;26.27;;;2.90;;
17494;SDS011;8864;51.970;4.614;2023-05-20T12:13:59;16.48;;;2.47;;
17494;SDS011;8864;51.970;4.614;2023-05-20T12:16:26;20.35;;;2.55;;
17494;SDS011;8864;51.970;4.614;2023-05-20T12:18:53;19.83;;;2.65;;
17494;SDS011;8864;51.970;4.614;2023-05-20T12:21:20;19.52;;;2.50;;
17494;SDS011;8864;51.970;4.614;2023-05-20T12:23:47;22.13;;;2.35;;
17494;SDS011;8864;51.970;4.614;2023-05-20T12:26:14;19.77;;;3.35;;
17494;SDS011;8864;51.970;4.614;2023-05-20T12:28:43;15.05;;;2.53;;
17494;SDS011;8864;51.970;4.614;2023-05-20T12:31:10;21.77;;;2.70;;
17494;SDS011;8864;51.970;4.614;2023-05-20T12:33:37;15.23;;;3.15;;
17494;SDS011;8864;51.970;4.614;2023-05-20T12:36:04;18.23;;;2.95;;
17494;SDS011;8864;51.970;4.614;2023-05-20T12:38:31;16.50;;;2.85;;
17494;SDS011;8864;51.970;4.614;2023-05-20T12:40:58;14.25;;;3.08;;
17494;SDS011;8864;51.970;4.614;2023-05-20T12:43:26;19.55;;;3.08;;
17494;SDS011;8864;51.970;4.614;2023-05-20T12:45:54;16.85;;;2.85;;
17494;SDS011;8864;51.970;4.614;2023-05-20T12:48:22;18.15;;;2.80;;
17494;SDS011;8864;51.970;4.614;2023-05-20T12:50:48;13.65;;;2.55;;
17494;SDS011;8864;51.970;4.614;2023-05-20T12:53:15;15.20;;;2.63;;
17494;SDS011;8864;51.970;4.614;2023-05-20T12:55:42;16.70;;;2.38;;
17494;SDS011;8864;51.970;4.614;2023-05-20T12:58:10;12.32;;;2.60;;
17494;SDS011;8864;51.970;4.614;2023-05-20T13:00:37;10.65;;;2.20;;
17494;SDS011;8864;51.970;4.614;2023-05-20T13:03:05;10.13;;;2.33;;
17494;SDS011;8864;51.970;4.614;2023-05-20T13:05:32;8.75;;;2.10;;
17494;SDS011;8864;51.970;4.614;2023-05-20T13:07:59;14.20;;;3.05;;
17494;SDS011;8864;51.970;4.614;2023-05-20T13:10:26;10.65;;;2.53;;
17494;SDS011;8864;51.970;4.614;2023-05-20T13:12:53;16.40;;;2.40;;
17494;SDS011;8864;51.970;4.614;2023-05-20T13:15:21;15.40;;;2.63;;
17494;SDS011;8864;51.970;4.614;2023-05-20T13:17:48;16.10;;;2.88;;
17494;SDS011;8864;51.970;4.614;2023-05-20T13:20:17;11.20;;;2.28;;
17494;SDS011;8864;51.970;4.614;2023-05-20T13:22:44;9.80;;;2.05;;
17494;SDS011;8864;51.970;4.614;2023-05-20T13:25:14;15.10;;;2.55;;
17494;SDS011;8864;51.970;4.614;2023-05-20T13:27:41;23.30;;;2.83;;
17494;SDS011;8864;51.970;4.614;2023-05-20T13:30:09;22.10;;;2.92;;
17494;SDS011;8864;51.970;4.614;2023-05-20T13:32:36;10.93;;;2.70;;
17494;SDS011;8864;51.970;4.614;2023-05-20T13:35:03;17.10;;;2.83;;
17494;SDS011;8864;51.970;4.614;2023-05-20T13:37:32;12.88;;;2.50;;
17494;SDS011;8864;51.970;4.614;2023-05-20T13:39:59;12.15;;;2.85;;
17494;SDS011;8864;51.970;4.614;2023-05-20T13:42:26;12.52;;;2.75;;
17494;SDS011;8864;51.970;4.614;2023-05-20T13:44:53;15.82;;;2.67;;
17494;SDS011;8864;51.970;4.614;2023-05-20T13:47:20;14.23;;;2.60;;
17494;SDS011;8864;51.970;4.614;2023-05-20T13:49:47;12.38;;;2.15;;
17494;SDS011;8864;51.970;4.614;2023-05-20T13:52:14;18.35;;;2.30;;
17494;SDS011;8864;51.970;4.614;2023-05-20T13:54:42;10.95;;;2.30;;
17494;SDS011;8864;51.970;4.614;2023-05-20T13:57:11;11.60;;;2.05;;
17494;SDS011;8864;51.970;4.614;2023-05-20T13:59:38;11.20;;;2.00;;
17494;SDS011;8864;51.970;4.614;2023-05-20T14:02:05;14.95;;;2.20;;
17494;SDS011;8864;51.970;4.614;2023-05-20T14:04:33;10.32;;;1.80;;
17494;SDS011;8864;51.970;4.614;2023-05-20T14:07:02;14.15;;;2.47;;
17494;SDS011;8864;51.970;4.614;2023-05-20T14:09:29;10.02;;;2.15;;
17494;SDS011;8864;51.970;4.614;2023-05-20T14:11:57;9.52;;;2.03;;
17494;SDS011;8864;51.970;4.614;2023-05-20T14:14:24;10.52;;;1.67;;
17494;SDS011;8864;51.970;4.614;2023-05-20T14:16:52;11.85;;;2.30;;
17494;SDS011;8864;51.970;4.614;2023-05-20T14:19:18;15.50;;;2.33;;
17494;SDS011;8864;51.970;4.614;2023-05-20T14:21:45;10.40;;;2.45;;
17494;SDS011;8864;51.970;4.614;2023-05-20T14:24:12;10.32;;;1.73;;
17494;SDS011;8864;51.970;4.614;2023-05-20T14:26:40;10.50;;;1.80;;
17494;SDS011;8864;51.970;4.614;2023-05-20T14:29:08;7.78;;;2.13;;
17494;SDS011;8864;51.970;4.614;2023-05-20T14:31:35;9.05;;;1.80;;
17494;SDS011;8864;51.970;4.614;2023-05-20T14:34:02;10.85;;;2.28;;
17494;SDS011;8864;51.970;4.614;2023-05-20T14:36:29;4.68;;;1.77;;
17494;SDS011;8864;51.970;4.614;2023-05-20T14:38:56;7.40;;;1.60;;
17494;SDS011;8864;51.970;4.614;2023-05-20T14:41:23;9.13;;;2.05;;
17494;SDS011;8864;51.970;4.614;2023-05-20T14:43:50;7.78;;;1.60;;
17494;SDS011;8864;51.970;4.614;2023-05-20T14:46:18;9.07;;;1.63;;
17494;SDS011;8864;51.970;4.614;2023-05-20T14:48:45;6.38;;;1.50;;
17494;SDS011;8864;51.970;4.614;2023-05-20T14:51:12;4.70;;;1.25;;
17494;SDS011;8864;51.970;4.614;2023-05-20T14:53:39;4.05;;;1.45;;
17494;SDS011;8864;51.970;4.614;2023-05-20T14:56:06;7.30;;;1.77;;
17494;SDS011;8864;51.970;4.614;2023-05-20T14:58:33;3.78;;;1.35;;
17494;SDS011;8864;51.970;4.614;2023-05-20T15:01:00;4.72;;;1.38;;
17494;SDS011;8864;51.970;4.614;2023-05-20T15:03:30;4.53;;;1.40;;